Bookmark and Share
Track history (hours):
 

Blue Image

Last reported at 2014-Apr-08 21:16 UTC. Time now 2014-Apr-17 18:34 UTC.
Position N 38°35' E 025°26'.
Warning: this ship's position is 8 days out of date.

Length 160 m; draft 5.8 m.

Type: Cargo ship. MMSI: 351960000.

NotesDate/timePositionNaut miles runAvg speedWind from/ knotsBaromVisibWave heightAir tempDewpointWater temp
2014-Apr-08 21:16N 38°35' E 025°26'912.7
2014-Apr-08 20:32N 38°29' E 025°17'5512.6
2014-Apr-08 16:10N 37°51' E 024°27'2012.3
2014-Apr-08 14:33N 37°37' E 024°08'1111.2
2014-Apr-08 13:33N 37°37' E 023°54'1211.8
2014-Apr-08 12:33N 37°43' E 023°41'1212.0
2014-Apr-08 11:33N 37°54' E 023°34'1 0.7
2014-Apr-08 10:33N 37°53' E 023°33'1 1.5
2014-Apr-08 09:33N 37°52' E 023°35'2 1.8
2014-Apr-08 08:29N 37°54' E 023°33'0 0.1
2014-Apr-08 07:29N 37°54' E 023°33'0 0.0
2014-Apr-08 06:32N 37°54' E 023°33'0 0.0
2014-Apr-08 05:23N 37°54' E 023°33'0 0.0
2014-Apr-08 04:23N 37°54' E 023°33'0 0.0
2014-Apr-08 03:26N 37°54' E 023°33'0 0.0
2014-Apr-08 02:29N 37°54' E 023°33'0 0.0
2014-Apr-08 01:32N 37°54' E 023°33'0 0.0
2014-Apr-08 00:29N 37°54' E 023°33'0 0.0
2014-Apr-07 23:29N 37°54' E 023°33'0 0.0
2014-Apr-07 22:29N 37°54' E 023°33'0 0.1
2014-Apr-07 21:32N 37°54' E 023°33'0 0.0
2014-Apr-07 20:32N 37°54' E 023°33'0 0.0
2014-Apr-07 19:32N 37°54' E 023°33'0 0.1
2014-Apr-07 17:32N 37°54' E 023°33'0 0.0
2014-Apr-07 16:32N 37°54' E 023°33'0 0.0
2014-Apr-07 15:32N 37°54' E 023°33'0 0.1
2014-Apr-07 14:29N 37°54' E 023°33'0 0.1
2014-Apr-07 13:26N 37°54' E 023°33'0 0.1
2014-Apr-07 12:23N 37°54' E 023°33'0 0.0
2014-Apr-07 11:29N 37°54' E 023°33'0 0.0
2014-Apr-07 10:23N 37°54' E 023°33'0 0.0
2014-Apr-07 09:32N 37°54' E 023°33'0 0.0
2014-Apr-07 08:29N 37°54' E 023°33'0 0.0
2014-Apr-07 07:29N 37°54' E 023°33'0 0.0
2014-Apr-07 06:23N 37°54' E 023°33'0 0.0
2014-Apr-07 05:23N 37°54' E 023°33'0 0.0
2014-Apr-07 04:23N 37°54' E 023°33'0 0.0
2014-Apr-07 03:32N 37°54' E 023°33'0 0.0
2014-Apr-07 02:32N 37°54' E 023°33'0 0.1
2014-Apr-07 01:29N 37°54' E 023°33'0 0.0
2014-Apr-07 00:23N 37°54' E 023°33'0 0.1
2014-Apr-06 23:32N 37°54' E 023°33'0 0.0
2014-Apr-06 22:32N 37°54' E 023°33'0 0.0
2014-Apr-06 21:32N 37°54' E 023°33'0 0.0
2014-Apr-06 20:32N 37°54' E 023°33'0 0.0
2014-Apr-06 19:32N 37°54' E 023°33'0 0.0
2014-Apr-06 18:32N 37°54' E 023°33'0 0.0
2014-Apr-06 17:32N 37°54' E 023°33'0 0.0
2014-Apr-06 16:32N 37°54' E 023°33'0 0.0
2014-Apr-06 15:32N 37°54' E 023°33'0 0.0
2014-Apr-06 14:29N 37°54' E 023°33'0 0.0
2014-Apr-06 13:32N 37°54' E 023°33'0 0.0
2014-Apr-06 12:32N 37°54' E 023°33'0 0.0
2014-Apr-06 11:32N 37°54' E 023°33'0 0.0
2014-Apr-06 10:32N 37°54' E 023°33'0 0.0
2014-Apr-06 09:32N 37°54' E 023°33'0 0.0
2014-Apr-06 08:29N 37°54' E 023°33'0 0.0
2014-Apr-06 07:29N 37°54' E 023°33'0 0.0
2014-Apr-06 06:29N 37°54' E 023°33'0 0.0
2014-Apr-06 05:29N 37°54' E 023°33'0 0.0
2014-Apr-06 04:32N 37°54' E 023°33'0 0.0
2014-Apr-06 03:29N 37°54' E 023°33'0 0.0
2014-Apr-06 02:32N 37°54' E 023°33'0 0.0
2014-Apr-06 01:33N 37°54' E 023°33'0 0.0
2014-Apr-06 00:34N 37°54' E 023°33'1 0.9
2014-Apr-05 23:33N 37°55' E 023°34'5 4.7
2014-Apr-05 22:34N 37°51' E 023°38'1110.9
2014-Apr-05 21:33N 37°42' E 023°45'2912.7
2014-Apr-05 19:14N 37°12' E 023°39'3 1.3
2014-Apr-05 17:16N 37°10' E 023°38'18 8.6
2014-Apr-05 15:12N 36°53' E 023°33'2312.7
2014-Apr-05 13:25N 36°32' E 023°23'1113.0
2014-Apr-05 12:33N 36°21' E 023°18'50412.6
2014-Apr-03 20:33N 33°09' E 013°51'1212.0
2014-Apr-03 19:33N 33°04' E 013°37'1212.3
2014-Apr-03 18:33N 33°00' E 013°24'1111.0
2014-Apr-03 17:33N 32°55' E 013°12'1 0.0
2014-Apr-03 01:09N 32°54' E 013°11'0 0.0
2014-Apr-03 00:27N 32°54' E 013°11'  

Dump ship's entire track history

sailing weather and tide predictions

Blue Image — 3EXO5 — position and weather